Port Macquarie Airport, New South Wales

3:49 AM AEST on September 01, 2015 (GMT +1000)
Sherwood Forest | | Change Station
CLOSE
Current Station
Personal Weather Station
Location: Port Macquarie, NEW SOUTH WALES
Elevation: 43 ft
Nearby Weather Stations

Elev 43 ft 31.45 °S, 152.87 °E | Updated 9 seconds ago

Clear
Clear
45.3 °F
Feels Like 45 °F
N
0.0
Wind Variable Wind from WSW
Gusts 0.0 mph

Today
High -- | Low -- °F
--% Chance of Precip.
Yesterday
High -- | Low -- °F
Precip. -- in
6:06 AM 5:32 PM
Waning Gibbous, 94% visible
Pressure 29.92 in
Visibility 6.2 miles
Clouds
Windchill 45 °F
Dew Point 37 °F
Humidity 72%
Rainfall 0.00 in
Snow Depth Not available.
UV Not available.
Pollen Not available.
Air Quality Not available.
Flu Activity Not available.
METAR YTRE 311700Z AUTO 25005KT 9999 // NCD 08/07 Q1013
Pressure 29.92 in
Visibility 6.2 miles
Clouds
Windchill 45 °F
Dew Point 37 °F
Humidity 72%
Rainfall 0.00 in
Snow Depth Not available.
UV Not available.
Pollen Not available.
Air Quality Not available.
Flu Activity Not available.
METAR YTRE 311700Z AUTO 25005KT 9999 // NCD 08/07 Q1013

10-Day Weather Forecast

×

Almanac

Astronomy

Sep. 01, 2015 Rise Set
Actual Time
Civil Twilight
Nautical Twilight
Astronomical Twilight
Moon
Length of Visible Light
Length of Day
Tomorrow will be .
, % of the Moon is Illuminated

Today's Extremes

Country Highs Country Lows

Community

WunderPhotos

Upload Photos

1,851,328 photos uploaded!

WunderBlogs® & News

Nearby

Air Quality

  Air Quality AQ Index Pollutant
Not available.

Snow Depth

Station Depth Elevation

Earthquake Activity

City Distance Mag. Time & Date
Minimum magnitude displayed is 2.5.

Coastal Water Temperatures

Place Temperature

Stations

Nearby Weather Stations

Station Location Temp. Windchill Dew Point Humidity Wind Precip. Elev Updated Type